Time;durP1;ratioP1;P1;durP2;ratioP2;P2;SDS_P1;SDS_P2;PMS_P1;PMS_P2;Temp;Humidity;BMP_temperature;BMP_pressure;BME280_temperature;BME280_humidity;BME280_pressure;Samples;Min_cycle;Max_cycle;Signal;HPM_P1;HPM_P2
2022/05/30 00:00:35;;;;;;;1.20;0.60;;;23.00;42.50;;;;;;5026290;28;20201;-68
2022/05/30 00:03:01;;;;;;;0.70;0.70;;;22.90;42.60;;;;;;5026727;28;20182;-68
2022/05/30 00:05:29;;;;;;;0.70;0.70;;;22.90;42.60;;;;;;5026562;28;20412;-68
2022/05/30 00:07:54;;;;;;;0.60;0.53;;;22.90;42.50;;;;;;5026727;28;20181;-68
2022/05/30 00:10:20;;;;;;;0.80;0.73;;;22.80;42.60;;;;;;5026678;28;20968;-68
2022/05/30 00:12:46;;;;;;;0.70;0.70;;;22.80;42.50;;;;;;5026304;28;20173;-68
2022/05/30 00:15:15;;;;;;;3.07;0.50;;;22.90;42.40;;;;;;5037058;28;20193;-68
2022/05/30 00:17:41;;;;;;;0.60;0.60;;;22.90;42.70;;;;;;5046141;28;20415;-67
2022/05/30 00:20:08;;;;;;;0.60;0.60;;;23.70;43.20;;;;;;5046113;28;20466;-67
2022/05/30 00:22:34;;;;;;;0.60;0.60;;;22.90;42.20;;;;;;5041042;28;20173;-68
2022/05/30 00:24:59;;;;;;;0.50;0.50;;;22.90;42.80;;;;;;5026305;28;20963;-68
2022/05/30 00:27:25;;;;;;;0.80;0.80;;;22.80;42.60;;;;;;5026184;28;20173;-68
2022/05/30 00:29:50;;;;;;;0.80;0.80;;;22.70;63.60;;;;;;5034144;28;20244;-68
2022/05/30 00:32:16;;;;;;;0.90;0.70;;;22.90;42.50;;;;;;5026155;28;20256;-68
2022/05/30 00:34:41;;;;;;;0.77;0.77;;;22.80;42.50;;;;;;5026089;28;20268;-68
2022/05/30 00:37:07;;;;;;;1.00;1.00;;;22.80;42.60;;;;;;5025958;28;20241;-68
2022/05/30 00:39:33;;;;;;;0.97;0.80;;;22.80;42.50;;;;;;5026168;28;20209;-68
2022/05/30 00:42:10;;;;;;;1.00;1.00;;;22.80;42.50;;;;;;5026046;28;20220;-68
2022/05/30 00:44:36;;;;;;;0.70;0.70;;;22.90;42.30;;;;;;5032691;28;20272;-68
2022/05/30 00:47:02;;;;;;;0.70;0.70;;;22.80;42.50;;;;;;5045635;28;20982;-67
2022/05/30 00:49:28;;;;;;;1.10;0.77;;;22.90;42.60;;;;;;5045879;28;20186;-68
2022/05/30 00:51:56;;;;;;;0.60;0.60;;;23.00;42.60;;;;;;5045866;28;20427;-68
2022/05/30 00:54:27;;;;;;;1.10;0.80;;;22.80;42.60;;;;;;5045882;28;20165;-68
2022/05/30 00:56:58;;;;;;;0.50;0.50;;;22.80;42.50;;;;;;5045973;28;20471;-68
2022/05/30 00:59:23;;;;;;;0.70;0.67;;;23.40;42.70;;;;;;5033237;28;20522;-68
2022/05/30 01:01:49;;;;;;;3.57;1.00;;;22.80;42.80;;;;;;5025724;28;20447;-68
2022/05/30 01:07:04;;;;;;;0.70;0.70;;;22.80;42.60;;;;;;5029272;28;20499;-68
2022/05/30 01:09:33;;;;;;;0.60;0.60;;;22.70;42.40;;;;;;5029085;28;20486;-68
2022/05/30 01:12:05;;;;;;;1.17;0.80;;;22.70;42.70;;;;;;5046418;28;20454;-68
2022/05/30 01:14:37;;;;;;;0.60;0.60;;;22.80;42.40;;;;;;5046572;28;20544;-68
2022/05/30 01:17:06;;;;;;;0.80;0.80;;;22.80;42.80;;;;;;5048250;28;20521;-67
2022/05/30 01:19:34;;;;;;;0.80;0.80;;;22.70;42.40;;;;;;5048816;28;20934;-68
2022/05/30 01:22:30;;;;;;;0.60;0.60;;;22.80;41.70;;;;;;5047863;28;20745;-68
2022/05/30 01:25:26;;;;;;;0.53;0.53;;;22.80;41.70;;;;;;5028974;28;20418;-68
2022/05/30 01:28:11;;;;;;;0.87;0.60;;;22.80;41.70;;;;;;5029165;28;20414;-68
2022/05/30 01:30:39;;;;;;;1.13;1.00;;;22.80;41.80;;;;;;5027481;28;20442;-67
2022/05/30 01:33:05;;;;;;;0.83;0.83;;;22.80;43.60;;;;;;5029370;28;20431;-68
2022/05/30 01:35:30;;;;;;;0.80;0.73;;;22.80;42.90;;;;;;5028607;28;20435;-68
2022/05/30 01:37:57;;;;;;;1.77;0.83;;;22.70;42.90;;;;;;5028450;28;20590;-68
2022/05/30 01:40:26;;;;;;;0.80;0.73;;;22.80;42.90;;;;;;5028672;28;20458;-68
2022/05/30 01:42:55;;;;;;;0.60;0.50;;;22.60;42.70;;;;;;5036667;28;20431;-68
2022/05/30 01:45:21;;;;;;;1.20;1.10;;;22.80;41.70;;;;;;5036645;28;20435;-67
2022/05/30 01:47:46;;;;;;;0.60;0.60;;;22.80;43.10;;;;;;5028354;28;20510;-68
2022/05/30 01:50:12;;;;;;;2.63;0.63;;;22.80;43.20;;;;;;5029648;28;20615;-67
2022/05/30 01:52:38;;;;;;;0.97;0.80;;;22.70;42.80;;;;;;5028858;28;20173;-68
2022/05/30 01:55:04;;;;;;;0.90;0.63;;;22.50;43.00;;;;;;5028803;28;20776;-68
2022/05/30 01:57:30;;;;;;;0.60;0.60;;;22.80;42.70;;;;;;5028493;28;20177;-68
2022/05/30 01:59:56;;;;;;;0.63;0.63;;;23.00;63.50;;;;;;5028591;28;20474;-68
2022/05/30 02:02:21;;;;;;;0.70;0.70;;;22.60;42.90;;;;;;5028168;28;20408;-68
2022/05/30 02:04:47;;;;;;;0.60;0.60;;;22.70;42.90;;;;;;5028300;28;20256;-67
2022/05/30 02:07:12;;;;;;;0.50;0.50;;;22.70;43.00;;;;;;5027995;28;20261;-68
2022/05/30 02:09:38;;;;;;;0.50;0.50;;;22.90;43.00;;;;;;5028389;28;20261;-68
2022/05/30 02:12:04;;;;;;;0.87;0.60;;;22.90;43.00;;;;;;5031095;28;20196;-68
2022/05/30 02:14:29;;;;;;;0.80;0.80;;;23.10;42.90;;;;;;5048393;28;20172;-68
2022/05/30 02:17:01;;;;;;;0.50;0.50;;;23.20;43.20;;;;;;5047645;28;20426;-67
2022/05/30 02:19:36;;;;;;;0.80;0.80;;;23.00;42.30;;;;;;5030864;28;20235;-68
2022/05/30 02:22:02;;;;;;;0.87;0.83;;;22.70;42.70;;;;;;5028167;28;20461;-68
2022/05/30 02:24:28;;;;;;;1.00;0.80;;;22.70;43.00;;;;;;5028323;28;20412;-68
2022/05/30 02:26:54;;;;;;;0.63;0.63;;;22.60;42.90;;;;;;5032072;28;20268;-68
2022/05/30 02:29:19;;;;;;;1.60;0.67;;;22.60;43.00;;;;;;5047801;28;20845;-68
2022/05/30 02:31:45;;;;;;;0.83;0.83;;;22.70;43.30;;;;;;5047914;28;20299;-68
2022/05/30 02:36:56;;;;;;;0.57;0.50;;;22.10;41.70;;;;;;5047605;28;20187;-67
2022/05/30 02:39:23;;;;;;;0.50;0.50;;;22.30;42.80;;;;;;5047044;28;20451;-67
2022/05/30 02:41:50;;;;;;;0.70;0.70;;;22.90;42.90;;;;;;5027715;28;20444;-68
2022/05/30 02:44:19;;;;;;;1.10;0.70;;;22.60;42.70;;;;;;5028518;28;20408;-68
2022/05/30 02:46:52;;;;;;;1.37;0.60;;;23.60;43.40;;;;;;5047677;28;20422;-68
2022/05/30 02:49:18;;;;;;;0.63;0.63;;;22.70;42.90;;;;;;5047494;28;20415;-67
2022/05/30 02:51:44;;;;;;;0.70;0.70;;;22.60;43.00;;;;;;5047542;28;20427;-68
2022/05/30 02:54:11;;;;;;;0.60;0.60;;;24.40;43.80;;;;;;5047521;28;20464;-68
2022/05/30 02:56:37;;;;;;;0.87;0.80;;;22.60;43.10;;;;;;5047387;28;20419;-68
2022/05/30 02:59:03;;;;;;;0.60;0.60;;;22.60;43.00;;;;;;5046600;28;20455;-68
2022/05/30 03:01:31;;;;;;;1.00;1.00;;;22.60;43.00;;;;;;5027564;28;20197;-68
2022/05/30 03:04:01;;;;;;;0.57;0.57;;;22.60;43.20;;;;;;5027361;28;20415;-68
2022/05/30 03:06:28;;;;;;;0.70;0.70;;;22.60;42.10;;;;;;5026975;28;20460;-68
2022/05/30 03:08:56;;;;;;;0.70;0.70;;;22.60;43.50;;;;;;5027102;28;20435;-68
2022/05/30 03:11:22;;;;;;;0.63;0.63;;;22.60;43.00;;;;;;5027299;28;20440;-68
2022/05/30 03:13:48;;;;;;;0.83;0.83;;;22.60;42.90;;;;;;5027593;28;20432;-68
2022/05/30 03:16:13;;;;;;;1.23;0.80;;;22.60;43.10;;;;;;5020291;28;20941;-67
2022/05/30 03:18:39;;;;;;;1.23;0.80;;;22.60;43.10;;;;;;5020612;28;20221;-68
2022/05/30 03:21:05;;;;;;;0.87;0.87;;;22.50;42.70;;;;;;5020543;28;20612;-68
2022/05/30 03:23:31;;;;;;;0.80;0.80;;;22.60;42.90;;;;;;5026938;28;20666;-68
2022/05/30 03:25:57;;;;;;;0.90;0.70;;;22.60;42.90;;;;;;5041830;28;20511;-68
2022/05/30 03:28:23;;;;;;;0.70;0.60;;;22.70;43.20;;;;;;5046407;28;20407;-68
2022/05/30 03:30:48;;;;;;;0.70;0.70;;;22.50;43.00;;;;;;5047088;28;20660;-68
2022/05/30 03:33:14;;;;;;;0.73;0.70;;;22.60;42.90;;;;;;5033944;28;20394;-68
2022/05/30 03:35:39;;;;;;;2.70;0.70;;;22.50;42.90;;;;;;5027059;28;20188;-68
2022/05/30 03:38:06;;;;;;;1.23;0.63;;;22.60;43.00;;;;;;5026554;28;20180;-68
2022/05/30 03:40:32;;;;;;;0.57;0.57;;;22.60;42.90;;;;;;5026931;28;20197;-68
2022/05/30 03:42:58;;;;;;;0.90;0.90;;;22.60;43.20;;;;;;5027223;28;20415;-68
2022/05/30 03:45:24;;;;;;;0.90;0.90;;;22.50;43.10;;;;;;5035393;28;20441;-68
2022/05/30 03:47:50;;;;;;;1.00;0.70;;;22.60;42.90;;;;;;5046698;28;20950;-68
2022/05/30 03:50:24;;;;;;;0.70;0.70;;;22.60;43.00;;;;;;5046795;28;20227;-68
2022/05/30 03:52:52;;;;;;;0.70;0.70;;;22.60;43.00;;;;;;5046785;28;20579;-67
2022/05/30 03:55:21;;;;;;;0.77;0.77;;;22.60;43.40;;;;;;5046871;28;20411;-68
2022/05/30 03:57:46;;;;;;;0.60;0.60;;;22.50;43.00;;;;;;5046454;28;20410;-68
2022/05/30 04:00:21;;;;;;;0.70;0.70;;;22.60;43.30;;;;;;5036804;28;20467;-67
2022/05/30 04:02:49;;;;;;;0.70;0.70;;;22.60;43.50;;;;;;5027078;28;20264;-68
2022/05/30 04:05:16;;;;;;;0.80;0.73;;;22.60;42.80;;;;;;5046202;28;20964;-68
2022/05/30 04:07:42;;;;;;;1.67;0.70;;;22.50;42.70;;;;;;5046681;28;20418;-68
2022/05/30 04:10:08;;;;;;;0.60;0.60;;;22.50;43.10;;;;;;5046927;28;20423;-68
2022/05/30 04:12:34;;;;;;;0.70;0.70;;;22.60;43.00;;;;;;5032374;28;20241;-67
2022/05/30 04:15:01;;;;;;;0.70;0.70;;;22.50;42.70;;;;;;5026888;28;20856;-68
2022/05/30 04:17:27;;;;;;;0.60;0.53;;;22.80;59.20;;;;;;5026696;28;20468;-68
2022/05/30 04:19:53;;;;;;;0.60;0.60;;;23.20;64.00;;;;;;5026291;28;20519;-68
2022/05/30 04:22:20;;;;;;;0.80;0.80;;;22.50;43.00;;;;;;5026831;28;20938;-68
2022/05/30 04:24:46;;;;;;;0.90;0.70;;;22.70;43.10;;;;;;5038299;28;20730;-68
2022/05/30 04:27:12;;;;;;;1.13;0.80;;;22.50;43.00;;;;;;5045996;28;20462;-68
2022/05/30 04:29:38;;;;;;;1.00;1.00;;;22.50;43.00;;;;;;5046252;28;20570;-68
2022/05/30 04:32:05;;;;;;;1.60;0.77;;;22.60;43.30;;;;;;5030822;28;20539;-68
2022/05/30 04:34:31;;;;;;;0.70;0.60;;;22.60;42.80;;;;;;5025503;28;20182;-67
2022/05/30 04:36:56;;;;;;;1.13;0.87;;;22.70;43.10;;;;;;5025600;28;20416;-68
2022/05/30 04:39:22;;;;;;;1.33;0.57;;;22.50;43.20;;;;;;5025621;28;20617;-68
2022/05/30 04:41:48;;;;;;;0.70;0.60;;;22.80;43.20;;;;;;5028944;28;20221;-68
2022/05/30 04:44:13;;;;;;;0.70;0.70;;;22.50;43.00;;;;;;5029512;28;20538;-67
2022/05/30 04:46:39;;;;;;;1.10;1.10;;;22.90;43.10;;;;;;5046272;28;20228;-68
2022/05/30 04:49:05;;;;;;;0.80;0.70;;;22.50;43.40;;;;;;5049054;28;20253;-68
2022/05/30 04:51:30;;;;;;;1.63;0.70;;;22.60;43.20;;;;;;5031186;28;20211;-68
2022/05/30 04:53:56;;;;;;;0.93;0.93;;;22.70;43.30;;;;;;5028993;28;20173;-68
2022/05/30 04:56:21;;;;;;;0.90;0.80;;;22.50;43.20;;;;;;5033269;28;20168;-68
2022/05/30 04:58:47;;;;;;;0.70;0.70;;;22.50;43.10;;;;;;5032159;28;20303;-68
2022/05/30 05:01:13;;;;;;;0.70;0.70;;;24.80;44.20;;;;;;5028773;28;20287;-67
2022/05/30 05:03:40;;;;;;;1.80;1.70;;;23.10;43.30;;;;;;5045078;28;20751;-67
2022/05/30 05:06:18;;;;;;;0.60;0.60;;;22.50;43.10;;;;;;5032526;28;20890;-67
2022/05/30 05:08:48;;;;;;;1.03;1.03;;;23.00;43.70;;;;;;5028682;28;20416;-68
2022/05/30 05:11:24;;;;;;;0.80;0.80;;;22.50;43.30;;;;;;5024677;28;20926;-67
2022/05/30 05:13:50;;;;;;;0.80;0.80;;;22.50;42.10;;;;;;5028442;28;20472;-67
2022/05/30 05:16:17;;;;;;;0.80;0.80;;;21.40;42.60;;;;;;5028491;28;20435;-68
2022/05/30 05:18:43;;;;;;;1.30;1.03;;;22.40;43.20;;;;;;5028029;28;20590;-68
2022/05/30 05:21:16;;;;;;;0.70;0.60;;;22.50;43.20;;;;;;5028429;28;20431;-68
2022/05/30 05:23:41;;;;;;;1.13;0.97;;;22.40;43.20;;;;;;5028573;28;20428;-68
2022/05/30 05:26:08;;;;;;;0.80;0.80;;;22.40;43.30;;;;;;5029267;28;20522;-68
2022/05/30 05:28:33;;;;;;;4.60;0.93;;;22.80;43.40;;;;;;5026995;28;20209;-67
2022/05/30 05:30:59;;;;;;;0.70;0.70;;;22.50;43.30;;;;;;5034294;28;20913;-67
2022/05/30 05:33:24;;;;;;;0.90;0.60;;;22.50;43.40;;;;;;5036236;28;20182;-68
2022/05/30 05:35:50;;;;;;;0.80;0.80;;;22.10;43.10;;;;;;5105767;28;20182;-68
2022/05/30 05:38:15;;;;;;;1.70;1.30;;;22.40;43.50;;;;;;5087398;28;20175;-68
2022/05/30 05:40:44;;;;;;;0.97;0.97;;;22.60;44.00;;;;;;5045797;28;20296;-69
2022/05/30 05:43:11;;;;;;;0.73;0.73;;;22.50;44.10;;;;;;5028007;28;20177;-68
2022/05/30 05:45:41;;;;;;;2.77;0.90;;;23.70;44.50;;;;;;5029135;28;20845;-68
2022/05/30 05:48:08;;;;;;;0.90;0.90;;;22.50;42.70;;;;;;5028303;28;20461;-68
2022/05/30 05:50:37;;;;;;;1.17;1.03;;;22.50;43.90;;;;;;5041621;28;20447;-69
2022/05/30 05:53:03;;;;;;;0.73;0.73;;;22.50;44.10;;;;;;5043970;28;20475;-69
2022/05/30 05:55:28;;;;;;;1.13;1.03;;;22.50;44.40;;;;;;5024909;28;20476;-69
2022/05/30 05:57:54;;;;;;;1.00;1.00;;;22.50;44.60;;;;;;5015886;28;20258;-69
2022/05/30 06:00:19;;;;;;;1.10;1.00;;;22.50;44.30;;;;;;5027008;28;20201;-68
2022/05/30 06:02:45;;;;;;;0.80;0.80;;;22.50;44.40;;;;;;5011567;28;20622;-68
2022/05/30 06:05:10;;;;;;;0.67;0.67;;;22.50;44.30;;;;;;5014769;28;20555;-68
2022/05/30 06:07:38;;;;;;;0.70;0.70;;;22.70;44.30;;;;;;5007967;28;20182;-69
2022/05/30 06:10:06;;;;;;;0.80;0.80;;;24.20;45.20;;;;;;5007688;28;20288;-69
2022/05/30 06:12:37;;;;;;;0.90;0.90;;;22.50;43.80;;;;;;5007839;28;20942;-68
2022/05/30 06:15:06;;;;;;;0.80;0.80;;;22.60;44.10;;;;;;5011390;28;20451;-68
2022/05/30 06:17:32;;;;;;;1.03;0.90;;;22.50;43.30;;;;;;5027656;28;20560;-69
2022/05/30 06:19:59;;;;;;;0.90;0.90;;;22.40;65.10;;;;;;5027247;28;20955;-68
2022/05/30 06:22:24;;;;;;;0.70;0.70;;;22.80;44.30;;;;;;5035817;28;20796;-68
2022/05/30 06:24:50;;;;;;;1.03;0.93;;;22.50;44.30;;;;;;5027334;28;20499;-69
2022/05/30 06:27:18;;;;;;;1.07;0.80;;;22.50;44.40;;;;;;5027044;28;20564;-69
2022/05/30 06:29:44;;;;;;;1.10;0.93;;;22.60;60.50;;;;;;5037774;28;20662;-68
2022/05/30 06:32:10;;;;;;;0.73;0.73;;;23.10;44.70;;;;;;5045987;28;20609;-68
2022/05/30 06:34:35;;;;;;;1.10;0.80;;;23.10;44.80;;;;;;5026750;28;20199;-68
2022/05/30 06:37:01;;;;;;;1.00;0.77;;;22.00;44.80;;;;;;5027013;28;20177;-68
2022/05/30 06:39:27;;;;;;;0.50;0.50;;;22.60;44.60;;;;;;5031397;28;20212;-68
2022/05/30 06:41:53;;;;;;;0.60;0.60;;;22.40;44.10;;;;;;5047129;28;20189;-68
2022/05/30 06:44:19;;;;;;;0.80;0.80;;;22.10;44.30;;;;;;5028296;28;20847;-68
2022/05/30 06:46:44;;;;;;;0.60;0.60;;;22.60;44.60;;;;;;5026577;28;20207;-68
2022/05/30 06:49:10;;;;;;;0.77;0.77;;;22.60;44.60;;;;;;5026956;28;20205;-68
2022/05/30 06:51:37;;;;;;;1.43;0.70;;;22.50;44.40;;;;;;5027176;28;20658;-68
2022/05/30 06:54:05;;;;;;;0.90;0.90;;;22.20;44.20;;;;;;5025212;28;20280;-68
2022/05/30 06:56:33;;;;;;;0.77;0.77;;;22.60;44.30;;;;;;5019301;28;20452;-68
2022/05/30 06:58:59;;;;;;;0.60;0.60;;;22.80;44.40;;;;;;5017912;28;20822;-69
2022/05/30 07:01:29;;;;;;;0.77;0.77;;;22.90;44.30;;;;;;5026860;28;20534;-68
2022/05/30 07:03:55;;;;;;;0.60;0.60;;;22.60;44.20;;;;;;5025774;28;20507;-69
2022/05/30 07:06:28;;;;;;;0.80;0.80;;;24.60;45.40;;;;;;5023302;28;20499;-69
2022/05/30 07:08:55;;;;;;;0.67;0.67;;;22.80;44.60;;;;;;5024000;28;20495;-68
2022/05/30 07:11:22;;;;;;;0.57;0.50;;;22.60;44.20;;;;;;5023462;28;20459;-68
2022/05/30 07:13:48;;;;;;;0.90;0.90;;;22.50;44.00;;;;;;5026333;28;20706;-68
2022/05/30 07:16:14;;;;;;;1.10;1.10;;;22.60;44.60;;;;;;5031177;28;20422;-69
2022/05/30 07:18:40;;;;;;;0.60;0.60;;;22.40;44.60;;;;;;5021986;28;20482;-68
2022/05/30 07:21:08;;;;;;;0.67;0.67;;;22.50;44.20;;;;;;5021920;28;20642;-68
2022/05/30 07:23:35;;;;;;;1.17;0.87;;;25.00;45.70;;;;;;5026973;28;20420;-70
2022/05/30 07:26:04;;;;;;;0.80;0.60;;;22.80;44.30;;;;;;5034306;28;20435;-68
2022/05/30 07:28:30;;;;;;;0.87;0.87;;;23.20;44.30;;;;;;5024755;28;20881;-69
2022/05/30 07:31:04;;;;;;;1.90;1.00;;;22.40;44.00;;;;;;5023980;28;20531;-71
2022/05/30 07:33:31;;;;;;;0.90;0.90;;;23.00;44.40;;;;;;5022257;28;20421;-69
2022/05/30 07:35:56;;;;;;;0.80;0.80;;;23.10;44.50;;;;;;5023437;28;20416;-71
2022/05/30 07:38:22;;;;;;;1.80;0.90;;;22.60;44.40;;;;;;5031567;28;20426;-69
2022/05/30 07:40:47;;;;;;;0.90;0.90;;;24.00;45.10;;;;;;5035228;28;20216;-69
2022/05/30 07:43:14;;;;;;;1.23;1.17;;;22.70;44.30;;;;;;5020541;28;20173;-72
2022/05/30 07:45:40;;;;;;;6.90;1.07;;;22.70;44.20;;;;;;5022539;28;20177;-69
2022/05/30 07:48:06;;;;;;;1.00;0.80;;;22.70;44.20;;;;;;5026189;28;20787;-67
2022/05/30 07:50:37;;;;;;;1.53;0.90;;;22.70;44.40;;;;;;5032785;28;20543;-70
2022/05/30 07:53:04;;;;;;;0.80;0.77;;;23.20;43.50;;;;;;5025713;28;20510;-71
2022/05/30 07:55:29;;;;;;;1.23;1.13;;;22.70;44.90;;;;;;5025891;28;20438;-70
2022/05/30 07:57:56;;;;;;;1.53;0.80;;;22.80;44.00;;;;;;5026417;28;20511;-72
2022/05/30 08:00:24;;;;;;;0.77;0.77;;;23.40;44.80;;;;;;5044414;28;20574;-68
2022/05/30 08:02:51;;;;;;;1.37;1.10;;;22.80;44.00;;;;;;5031864;28;20522;-68
2022/05/30 08:05:18;;;;;;;1.47;1.33;;;22.80;44.10;;;;;;5021305;28;20446;-68
2022/05/30 08:07:44;;;;;;;1.80;0.63;;;22.80;43.90;;;;;;5023938;28;20924;-69
2022/05/30 08:10:12;;;;;;;0.80;0.80;;;22.80;43.90;;;;;;5032957;28;20455;-69
2022/05/30 08:12:38;;;;;;;1.37;1.10;;;22.80;44.60;;;;;;5036488;28;20466;-70
2022/05/30 08:15:05;;;;;;;1.13;1.10;;;22.70;43.90;;;;;;5044965;28;20928;-70
2022/05/30 08:17:30;;;;;;;0.87;0.70;;;22.90;43.60;;;;;;5026303;28;20435;-71
2022/05/30 08:19:59;;;;;;;0.80;0.70;;;23.00;64.40;;;;;;5024964;28;20462;-70
2022/05/30 08:22:25;;;;;;;2.53;1.07;;;22.80;43.90;;;;;;5023179;28;20319;-71
2022/05/30 08:24:53;;;;;;;1.47;1.10;;;23.10;44.20;;;;;;5025589;28;20541;-72
2022/05/30 08:27:20;;;;;;;3.23;1.17;;;23.60;44.20;;;;;;5024020;28;20177;-72
2022/05/30 08:29:46;;;;;;;1.30;0.77;;;23.00;63.80;;;;;;5005630;28;20832;-71
2022/05/30 08:32:15;;;;;;;1.80;0.80;;;22.80;44.30;;;;;;5029806;28;20442;-72
2022/05/30 08:34:42;;;;;;;0.90;0.90;;;22.90;44.00;;;;;;5025430;28;20812;-70
2022/05/30 08:37:09;;;;;;;1.23;0.87;;;22.90;44.10;;;;;;5025805;28;20420;-71
2022/05/30 08:42:28;;;;;;;2.10;0.90;;;22.90;43.30;;;;;;5024843;28;20439;-71
2022/05/30 08:44:55;;;;;;;0.70;0.70;;;22.90;44.00;;;;;;5040058;28;20430;-70
2022/05/30 08:47:44;;;;;;;1.57;0.63;;;22.90;44.20;;;;;;5034945;28;20419;-69
2022/05/30 08:50:38;;;;;;;1.53;0.60;;;23.20;44.40;;;;;;5045717;28;20468;-69
2022/05/30 08:53:31;;;;;;;1.87;0.90;;;22.80;44.00;;;;;;5026727;28;20854;-69
2022/05/30 08:56:06;;;;;;;0.80;0.80;;;23.00;43.30;;;;;;5024138;28;20527;-68
2022/05/30 08:59:07;;;;;;;0.90;0.77;;;23.00;44.00;;;;;;5029157;28;20554;-69
2022/05/30 09:01:54;;;;;;;0.87;0.87;;;23.00;43.10;;;;;;5041062;28;20448;-67
2022/05/30 09:04:29;;;;;;;1.00;0.77;;;23.10;43.10;;;;;;5025439;28;20424;-67
2022/05/30 09:07:03;;;;;;;1.20;0.90;;;23.40;44.00;;;;;;5025471;28;20412;-69
2022/05/30 09:09:50;;;;;;;0.90;0.90;;;23.00;44.10;;;;;;5016861;28;20435;-69
2022/05/30 09:12:23;;;;;;;1.17;0.90;;;22.90;42.90;;;;;;5027277;28;20459;-69
2022/05/30 09:14:58;;;;;;;0.70;0.70;;;23.00;43.20;;;;;;5024464;28;20485;-67
2022/05/30 09:18:01;;;;;;;0.50;0.50;;;23.60;43.50;;;;;;5024206;28;20458;-68
2022/05/30 09:20:29;;;;;;;0.80;0.80;;;22.80;44.20;;;;;;5018581;28;20556;-68
2022/05/30 09:22:55;;;;;;;0.50;0.50;;;23.10;43.90;;;;;;5024646;28;20460;-70
2022/05/30 09:28:11;;;;;;;0.80;0.73;;;23.00;44.10;;;;;;5029395;28;20450;-67
2022/05/30 09:31:21;;;;;;;2.83;0.90;;;23.10;44.10;;;;;;5023250;28;20448;-69
2022/05/30 09:33:58;;;;;;;0.80;0.80;;;23.10;43.20;;;;;;5029036;28;20649;-69
2022/05/30 09:36:29;;;;;;;3.23;0.80;;;23.00;44.10;;;;;;5026266;28;20503;-69
2022/05/30 09:39:15;;;;;;;0.63;0.63;;;23.00;43.90;;;;;;5027110;28;20478;-69
2022/05/30 09:41:41;;;;;;;1.80;1.00;;;23.00;43.80;;;;;;5027377;28;20439;-68
2022/05/30 09:44:19;;;;;;;1.00;0.60;;;22.90;44.00;;;;;;5048305;28;20474;-68
2022/05/30 09:47:05;;;;;;;0.87;0.67;;;23.00;42.80;;;;;;5032022;28;20201;-69
2022/05/30 09:49:36;;;;;;;2.83;1.03;;;23.00;42.80;;;;;;5043565;28;20437;-73
2022/05/30 09:52:29;;;;;;;1.73;1.00;;;22.90;43.80;;;;;;5048265;28;20431;-70
2022/05/30 09:54:54;;;;;;;0.97;0.87;;;22.50;42.60;;;;;;5028890;28;20500;-70
2022/05/30 09:57:53;;;;;;;2.27;1.17;;;22.90;43.50;;;;;;5058080;28;20435;-71
2022/05/30 10:00:32;;;;;;;0.87;0.87;;;23.00;42.80;;;;;;5049441;28;20480;-72
2022/05/30 10:03:03;;;;;;;0.97;0.97;;;23.00;44.10;;;;;;5029312;28;20433;-69
2022/05/30 10:05:32;;;;;;;3.03;1.30;;;23.00;44.10;;;;;;5007918;28;20636;-71
2022/05/30 10:08:01;;;;;;;0.93;0.80;;;23.10;44.10;;;;;;5007971;28;20879;-69
2022/05/30 10:10:46;;;;;;;0.80;0.80;;;22.90;44.20;;;;;;5037373;28;20446;-67
2022/05/30 10:13:12;;;;;;;0.57;0.57;;;23.00;43.10;;;;;;5040259;28;20975;-68
2022/05/30 10:15:43;;;;;;;1.20;1.10;;;23.10;44.30;;;;;;5047353;28;20518;-68
2022/05/30 10:18:17;;;;;;;1.20;0.80;;;23.00;44.10;;;;;;5028625;28;20233;-74
2022/05/30 10:21:04;;;;;;;0.80;0.80;;;23.90;43.70;;;;;;5010078;28;20440;-73
2022/05/30 10:29:46;;;;;;;1.27;0.80;;;23.30;43.80;;;;;;5008073;28;20420;-74
2022/05/30 10:32:46;;;;;;;2.70;0.97;;;22.90;42.50;;;;;;5011544;28;20535;-74
2022/05/30 10:35:37;;;;;;;1.23;0.93;;;23.10;42.30;;;;;;5070849;27;20437;-74
2022/05/30 10:38:16;;;;;;;0.80;0.80;;;23.10;42.20;;;;;;5041384;28;20428;-74
2022/05/30 10:40:52;;;;;;;0.70;0.57;;;23.80;43.70;;;;;;5027110;28;20888;-73
2022/05/30 10:43:45;;;;;;;0.60;0.50;;;24.90;44.40;;;;;;5027189;28;20423;-74
2022/05/30 10:46:18;;;;;;;0.80;0.80;;;23.00;42.20;;;;;;5030937;28;20930;-74
2022/05/30 10:48:53;;;;;;;0.87;0.87;;;22.90;43.00;;;;;;5047342;28;20532;-74
2022/05/30 10:51:29;;;;;;;0.60;0.60;;;24.00;43.60;;;;;;5034440;28;20466;-73
2022/05/30 10:54:01;;;;;;;1.00;0.60;;;23.00;43.10;;;;;;5022252;28;20407;-73
2022/05/30 10:56:32;;;;;;;0.53;0.50;;;23.10;43.00;;;;;;5027611;28;20419;-74
2022/05/30 10:59:22;;;;;;;1.90;0.70;;;23.00;43.00;;;;;;5027019;28;20536;-73
2022/05/30 11:02:03;;;;;;;0.70;0.60;;;23.00;41.80;;;;;;5028040;28;20454;-75
2022/05/30 11:04:46;;;;;;;0.80;0.70;;;23.00;41.80;;;;;;5031755;28;20424;-75
2022/05/30 11:07:32;;;;;;;1.10;1.00;;;23.00;41.70;;;;;;5039607;28;20424;-70
2022/05/30 11:10:32;;;;;;;0.90;0.70;;;22.60;62.70;;;;;;5019091;28;20455;-73
2022/05/30 11:13:18;;;;;;;1.53;0.90;;;23.00;41.90;;;;;;5017819;28;20915;-70
2022/05/30 11:16:06;;;;;;;0.67;0.67;;;23.00;41.80;;;;;;5022954;28;20429;-68
2022/05/30 11:18:31;;;;;;;1.53;1.00;;;23.00;41.70;;;;;;5035877;28;20455;-68
2022/05/30 11:21:20;;;;;;;0.90;0.90;;;22.90;42.40;;;;;;5037071;28;20455;-70
2022/05/30 11:23:46;;;;;;;1.07;0.87;;;23.00;42.50;;;;;;5022258;28;20187;-70
2022/05/30 11:26:29;;;;;;;2.70;1.03;;;22.40;42.10;;;;;;5022183;28;20522;-72
2022/05/30 11:29:16;;;;;;;1.87;0.67;;;23.10;41.50;;;;;;5025417;28;20184;-70
2022/05/30 11:31:52;;;;;;;0.87;0.87;;;23.10;41.50;;;;;;5022367;28;20501;-72
2022/05/30 11:34:22;;;;;;;1.20;0.70;;;23.10;41.40;;;;;;5026926;28;20945;-72
2022/05/30 11:37:14;;;;;;;2.70;0.93;;;23.20;42.10;;;;;;5026672;28;20460;-70
2022/05/30 11:39:50;;;;;;;0.90;0.70;;;23.00;42.00;;;;;;5027826;28;20464;-74
2022/05/30 11:42:41;;;;;;;0.70;0.70;;;23.10;42.10;;;;;;5027304;28;20506;-73
2022/05/30 11:45:15;;;;;;;0.70;0.70;;;23.10;41.20;;;;;;5027397;28;20408;-69
2022/05/30 11:48:07;;;;;;;1.23;0.80;;;23.80;42.30;;;;;;5026366;28;20472;-71
2022/05/30 11:50:45;;;;;;;3.13;0.93;;;23.10;41.10;;;;;;5026324;28;20900;-72
2022/05/30 11:53:42;;;;;;;1.57;1.03;;;23.30;42.10;;;;;;5025547;28;20574;-75
2022/05/30 11:56:08;;;;;;;1.33;0.83;;;23.10;41.10;;;;;;5024601;28;20427;-72
2022/05/30 11:59:03;;;;;;;0.90;0.90;;;23.40;42.00;;;;;;5026724;28;21026;-71
2022/05/30 12:01:31;;;;;;;0.97;0.97;;;23.20;41.50;;;;;;5021745;28;20193;-73
2022/05/30 12:04:18;;;;;;;2.43;0.83;;;23.10;41.60;;;;;;5023626;28;20415;-73
2022/05/30 12:06:56;;;;;;;1.53;0.80;;;23.20;40.80;;;;;;5021068;28;20416;-74
2022/05/30 12:09:45;;;;;;;0.80;0.80;;;23.10;40.60;;;;;;5026361;28;20427;-72
2022/05/30 12:12:47;;;;;;;1.43;0.90;;;23.10;40.60;;;;;;5026613;28;20439;-75
2022/05/30 12:15:30;;;;;;;1.10;0.93;;;23.30;40.60;;;;;;5034710;28;20431;-69
2022/05/30 12:24:12;;;;;;;0.90;0.60;;;23.30;40.20;;;;;;5035313;28;20944;-72
2022/05/30 12:26:59;;;;;;;0.73;0.73;;;24.00;41.70;;;;;;5021412;28;20483;-72
2022/05/30 12:29:37;;;;;;;1.37;0.90;;;23.20;40.30;;;;;;5025833;28;20820;-72
2022/05/30 12:32:17;;;;;;;1.87;0.70;;;23.30;40.40;;;;;;5026015;28;20436;-72
2022/05/30 12:35:00;;;;;;;0.70;0.70;;;23.30;40.50;;;;;;5038612;28;20424;-71
2022/05/30 12:37:44;;;;;;;0.70;0.50;;;23.30;41.80;;;;;;5018951;28;20501;-72
2022/05/30 12:40:27;;;;;;;1.13;0.77;;;23.30;40.60;;;;;;5021917;28;20467;-71
2022/05/30 12:43:23;;;;;;;0.70;0.70;;;23.30;40.70;;;;;;5024099;28;20412;-71
2022/05/30 12:45:54;;;;;;;1.10;0.60;;;23.30;40.80;;;;;;5027503;28;20795;-72
2022/05/30 12:48:44;;;;;;;0.80;0.67;;;24.30;42.30;;;;;;5032839;28;20869;-71
2022/05/30 12:51:23;;;;;;;0.60;0.60;;;23.10;41.90;;;;;;5030403;28;20423;-71
2022/05/30 12:53:55;;;;;;;0.60;0.60;;;23.20;41.00;;;;;;5025735;28;20924;-72
2022/05/30 12:56:39;;;;;;;1.50;0.90;;;23.30;42.20;;;;;;5042547;28;20419;-73
2022/05/30 12:59:25;;;;;;;0.60;0.60;;;23.30;42.10;;;;;;5022164;28;20463;-73
2022/05/30 13:01:54;;;;;;;0.80;0.80;;;23.80;42.50;;;;;;5028121;28;20438;-75
2022/05/30 13:04:25;;;;;;;0.70;0.67;;;24.70;43.10;;;;;;5027502;28;20400;-72
2022/05/30 13:06:57;;;;;;;0.90;0.90;;;23.70;42.60;;;;;;5025856;28;20828;-72
2022/05/30 13:09:34;;;;;;;1.13;0.67;;;23.20;43.00;;;;;;5029364;28;20858;-75
2022/05/30 13:12:12;;;;;;;2.90;1.10;;;24.50;43.50;;;;;;5027595;28;20435;-73
2022/05/30 13:14:41;;;;;;;1.83;1.10;;;24.00;43.20;;;;;;5027264;28;20504;-76
2022/05/30 13:17:19;;;;;;;1.30;0.83;;;24.00;43.20;;;;;;5029367;28;20911;-76
2022/05/30 13:19:57;;;;;;;0.70;0.70;;;23.20;58.90;;;;;;5032732;28;20561;-75
2022/05/30 13:22:53;;;;;;;1.33;0.77;;;23.40;42.10;;;;;;5023255;28;20474;-72
2022/05/30 13:25:47;;;;;;;1.60;0.83;;;23.40;43.00;;;;;;5028364;28;20431;-70
2022/05/30 13:28:39;;;;;;;0.70;0.70;;;23.30;43.50;;;;;;5024044;28;20534;-71
2022/05/30 13:31:08;;;;;;;1.03;1.03;;;23.00;43.00;;;;;;5030254;28;20477;-70
2022/05/30 13:33:40;;;;;;;0.60;0.60;;;23.30;43.00;;;;;;5027925;28;20604;-70